Schedule Details


Flight Number: CTN367
Departure: Alexander The Great (LWSK) at 05:45
Arrival: Franjo Tudman (LDZA) at 07:05
Route: GOSTI P92 MAVAR UY400 RETRA UL604 BOSNA UL608 KOMAR L187 TEBLI

Weather Information
LWSK 201000Z 33002KT CAVOK 15/02 Q1025 NOSIG
LDZA 201000Z 04014KT 010V070 CAVOK 10/M02 Q1032 NOSIG
Schedule Frequency

Route Map